Time;durP1;ratioP1;P1;durP2;ratioP2;P2;SDS_P1;SDS_P2;PMS_P1;PMS_P2;Temp;Humidity;BMP_temperature;BMP_pressure;BME280_temperature;BME280_humidity;BME280_pressure;Samples;Min_cycle;Max_cycle;Signal;HPM_P1;HPM_P2
2022/04/13 00:08:28;;;;;;;6.93;4.17;;;12.10;67.00;;;;;;20918638;28;20228;-66
2022/04/13 00:18:30;;;;;;;6.03;3.77;;;12.10;68.00;;;;;;20918002;28;20234;-68
2022/04/13 00:28:31;;;;;;;6.90;3.90;;;12.00;68.10;;;;;;20916853;28;20245;-63
2022/04/13 00:38:33;;;;;;;17.13;4.07;;;12.00;68.70;;;;;;20916001;28;20236;-64
2022/04/13 00:48:37;;;;;;;9.40;4.03;;;12.00;69.60;;;;;;20916606;28;20593;-61
2022/04/13 00:58:40;;;;;;;9.03;3.83;;;11.90;69.50;;;;;;20914391;28;20247;-62
2022/04/13 01:08:43;;;;;;;5.70;3.77;;;11.80;69.80;;;;;;20913407;28;20214;-65
2022/04/13 01:18:45;;;;;;;6.27;3.40;;;11.80;70.30;;;;;;20912692;28;20321;-60
2022/04/13 01:28:46;;;;;;;6.47;3.33;;;11.80;70.30;;;;;;20911938;28;20240;-62
2022/04/13 01:38:48;;;;;;;8.50;3.80;;;11.60;70.00;;;;;;20910956;28;20612;-63
2022/04/13 01:48:50;;;;;;;6.70;3.60;;;11.50;70.20;;;;;;20912084;28;20583;-61
2022/04/13 01:58:52;;;;;;;7.53;3.80;;;11.50;70.80;;;;;;20911946;28;20577;-59
2022/04/13 02:08:53;;;;;;;7.03;3.70;;;11.40;70.80;;;;;;20912548;28;20226;-59
2022/04/13 02:18:55;;;;;;;10.80;4.10;;;11.30;71.70;;;;;;20911186;28;20239;-60
2022/04/13 02:28:57;;;;;;;8.53;4.13;;;11.20;72.50;;;;;;20911129;28;20204;-60
2022/04/13 02:38:59;;;;;;;7.97;4.13;;;11.20;73.50;;;;;;20913235;28;20293;-60
2022/04/13 02:49:01;;;;;;;7.37;3.93;;;11.10;73.60;;;;;;20925949;28;20286;-59
2022/04/13 02:59:02;;;;;;;9.83;3.63;;;11.10;74.20;;;;;;20925183;28;20293;-61
2022/04/13 03:09:04;;;;;;;15.20;4.20;;;11.10;73.60;;;;;;20923178;28;20663;-59
2022/04/13 03:19:06;;;;;;;6.27;3.80;;;11.10;74.40;;;;;;20923640;28;20243;-59
2022/04/13 03:29:07;;;;;;;5.50;3.57;;;11.00;73.70;;;;;;20923285;28;20208;-59
2022/04/13 03:39:09;;;;;;;6.20;3.70;;;11.00;73.80;;;;;;20922030;28;20267;-61
2022/04/13 03:49:11;;;;;;;8.37;4.10;;;10.90;74.00;;;;;;20921216;28;20212;-61
2022/04/13 03:59:13;;;;;;;10.13;4.27;;;11.00;74.30;;;;;;20920893;28;20285;-62
2022/04/13 04:09:14;;;;;;;6.67;4.20;;;10.90;74.40;;;;;;20927242;28;20215;-62
2022/04/13 04:19:16;;;;;;;11.20;4.20;;;10.80;74.60;;;;;;20933509;28;20289;-62
2022/04/13 04:29:18;;;;;;;6.03;4.07;;;10.70;74.90;;;;;;20919443;28;20207;-61
2022/04/13 04:39:19;;;;;;;7.57;4.00;;;10.60;75.50;;;;;;20917668;28;20292;-61
2022/04/13 04:49:21;;;;;;;7.03;4.30;;;10.60;75.80;;;;;;20916507;28;20249;-61
2022/04/13 04:59:23;;;;;;;9.07;4.07;;;10.60;76.50;;;;;;20915299;28;20239;-62
2022/04/13 05:09:25;;;;;;;7.17;4.47;;;10.50;76.20;;;;;;20914097;28;20217;-63
2022/04/13 05:19:27;;;;;;;8.47;4.43;;;10.70;76.90;;;;;;20913550;28;20285;-59
2022/04/13 05:29:28;;;;;;;11.07;4.53;;;10.80;77.10;;;;;;20862686;28;20632;-62
2022/04/13 05:39:30;;;;;;;18.23;4.90;;;10.80;77.50;;;;;;20829447;28;20313;-61
2022/04/13 05:49:32;;;;;;;11.47;4.90;;;10.90;77.70;;;;;;20904805;28;20206;-62
2022/04/13 05:59:35;;;;;;;16.87;5.17;;;11.00;77.60;;;;;;20910996;28;20642;-63
2022/04/13 06:09:37;;;;;;;23.40;5.57;;;11.30;77.20;;;;;;20905900;28;20222;-63
2022/04/13 06:19:38;;;;;;;26.93;7.00;;;11.40;76.80;;;;;;20921748;28;20235;-64
2022/04/13 06:29:40;;;;;;;21.47;6.00;;;11.50;76.80;;;;;;20926561;28;20657;-63
2022/04/13 06:39:42;;;;;;;17.60;6.27;;;11.70;77.30;;;;;;20925040;28;20242;-61
2022/04/13 06:49:45;;;;;;;24.33;6.83;;;12.20;75.70;;;;;;20923957;28;20206;-65
2022/04/13 06:59:47;;;;;;;20.27;6.70;;;12.50;75.20;;;;;;20923751;28;20244;-64
2022/04/13 07:09:48;;;;;;;19.57;6.67;;;12.80;73.80;;;;;;20922967;28;20603;-66
2022/04/13 07:19:50;;;;;;;27.87;7.43;;;13.20;72.70;;;;;;20923312;28;20246;-66
2022/04/13 07:29:52;;;;;;;20.33;6.40;;;13.40;71.60;;;;;;20919691;28;20203;-63
2022/04/13 07:39:53;;;;;;;18.30;6.63;;;13.90;69.80;;;;;;20927075;28;20241;-65
2022/04/13 07:49:55;;;;;;;12.37;5.90;;;14.30;68.40;;;;;;20886099;28;20667;-63
2022/04/13 07:59:57;;;;;;;21.97;5.83;;;14.60;67.50;;;;;;20920597;28;20290;-64
2022/04/13 08:09:59;;;;;;;9.67;6.00;;;14.80;67.20;;;;;;20897824;28;20200;-64
2022/04/13 08:20:01;;;;;;;12.10;5.80;;;15.30;63.80;;;;;;20917000;28;20236;-63
2022/04/13 08:30:03;;;;;;;13.70;6.40;;;15.50;63.20;;;;;;20917505;28;20233;-64
2022/04/13 08:40:06;;;;;;;15.17;5.57;;;15.80;62.10;;;;;;20914541;28;20293;-65
2022/04/13 08:50:09;;;;;;;10.20;5.50;;;16.30;60.60;;;;;;20915408;28;20204;-70
2022/04/13 09:00:14;;;;;;;12.37;5.27;;;16.60;59.60;;;;;;20916380;28;20304;-65
2022/04/13 09:10:25;;;;;;;9.33;5.73;;;16.90;59.40;;;;;;20914465;28;20263;-74
2022/04/13 09:20:27;;;;;;;11.97;5.40;;;17.30;59.00;;;;;;20911911;28;20231;-68
2022/04/13 09:30:31;;;;;;;9.77;5.60;;;17.60;58.70;;;;;;20912367;28;20208;-68
2022/04/13 09:40:38;;;;;;;16.63;6.53;;;17.80;58.10;;;;;;20850922;28;20304;-68
2022/04/13 09:50:44;;;;;;;10.73;5.80;;;18.10;57.00;;;;;;20828319;28;20217;-69
2022/04/13 10:00:52;;;;;;;9.57;5.77;;;18.30;56.70;;;;;;20828153;28;20241;-66
2022/04/13 10:10:59;;;;;;;12.93;6.17;;;18.50;56.10;;;;;;20828443;28;20211;-70
2022/04/13 10:21:01;;;;;;;14.13;6.63;;;18.70;56.60;;;;;;20827823;28;20605;-67
2022/04/13 10:31:08;;;;;;;11.33;6.47;;;18.90;54.80;;;;;;20827979;28;20206;-73
2022/04/13 10:41:17;;;;;;;11.53;6.33;;;19.10;54.60;;;;;;20848652;28;20242;-71
2022/04/13 10:51:31;;;;;;;13.07;6.50;;;19.30;54.90;;;;;;20863258;28;20215;-72
2022/04/13 11:01:45;;;;;;;16.00;6.40;;;19.30;55.40;;;;;;20912672;28;20604;-71
2022/04/13 11:11:50;;;;;;;17.60;7.03;;;19.60;54.40;;;;;;20920859;28;20210;-71
2022/04/13 11:21:51;;;;;;;13.03;6.60;;;19.70;53.90;;;;;;20920796;28;20242;-71
2022/04/13 11:32:04;;;;;;;14.20;6.80;;;20.00;53.40;;;;;;20919879;28;20234;-71
2022/04/13 11:42:33;;;;;;;24.17;13.87;;;20.00;53.90;;;;;;20918827;28;20293;-72
2022/04/13 11:52:46;;;;;;;14.03;6.73;;;20.40;53.00;;;;;;20909943;28;20214;-71
2022/04/13 12:02:48;;;;;;;13.43;6.43;;;20.70;52.20;;;;;;20902003;28;20244;-71
2022/04/13 12:12:52;;;;;;;20.53;6.90;;;20.80;52.50;;;;;;20852771;28;20212;-70
2022/04/13 12:22:54;;;;;;;14.33;7.50;;;21.00;51.10;;;;;;20838469;28;20244;-68
2022/04/13 12:32:56;;;;;;;22.27;9.10;;;21.20;50.70;;;;;;20833469;28;20685;-70
2022/04/13 12:42:58;;;;;;;15.27;8.37;;;21.20;51.10;;;;;;20834433;28;20691;-69
2022/04/13 12:53:02;;;;;;;14.87;6.77;;;21.70;50.30;;;;;;20833321;28;20205;-70
2022/04/13 13:03:04;;;;;;;10.70;6.53;;;22.10;50.00;;;;;;20832148;28;20236;-67
2022/04/13 13:13:11;;;;;;;12.93;6.50;;;22.20;50.40;;;;;;20831827;28;20209;-70
2022/04/13 13:23:13;;;;;;;10.70;6.53;;;22.30;49.80;;;;;;20835694;28;20243;-73
2022/04/13 13:33:15;;;;;;;10.63;6.00;;;22.80;48.80;;;;;;20873778;28;20204;-70
2022/04/13 13:43:16;;;;;;;9.37;5.90;;;22.90;49.10;;;;;;20840168;28;20228;-72
2022/04/13 13:53:20;;;;;;;11.37;5.17;;;23.40;48.60;;;;;;20911715;28;20204;-67
2022/04/13 14:03:22;;;;;;;8.27;4.77;;;26.30;45.30;;;;;;20910137;28;20243;-63
2022/04/13 14:13:24;;;;;;;28.55;15.65;;;26.80;44.60;;;;;;20911139;28;20738;-68
2022/04/13 14:23:25;;;;;;;10.23;6.13;;;27.40;42.30;;;;;;20873907;28;20268;-65
2022/04/13 14:33:27;;;;;;;7.95;3.95;;;29.60;39.70;;;;;;20829508;28;20262;-71
2022/04/13 14:43:29;;;;;;;11.02;3.90;;;29.90;39.80;;;;;;20843444;28;20235;-68
2022/04/13 14:53:31;;;;;;;7.60;4.28;;;31.90;37.10;;;;;;20845439;28;20672;-63
2022/04/13 15:03:32;;;;;;;6.53;3.53;;;32.60;33.90;;;;;;20840999;28;20248;-65
2022/04/13 15:13:34;;;;;;;6.80;3.20;;;32.20;34.70;;;;;;20922399;28;20241;-64
2022/04/13 15:23:36;;;;;;;4.82;3.20;;;31.20;34.50;;;;;;20922544;28;20270;-66
2022/04/13 15:33:38;;;;;;;8.20;3.53;;;30.30;34.90;;;;;;20912271;28;20281;-69
2022/04/13 15:43:39;;;;;;;4.53;3.30;;;28.00;37.20;;;;;;20887081;28;20277;-65
2022/04/13 15:53:41;;;;;;;7.35;3.63;;;28.00;37.70;;;;;;20900479;28;20253;-62
2022/04/13 16:03:44;;;;;;;7.03;3.25;;;27.90;37.30;;;;;;20837503;28;20243;-62
2022/04/13 16:13:46;;;;;;;6.57;3.25;;;27.70;38.20;;;;;;20837274;28;20211;-63
2022/04/13 16:23:47;;;;;;;7.83;3.57;;;27.60;37.50;;;;;;20844159;28;20236;-70
2022/04/13 16:33:49;;;;;;;4.63;3.03;;;26.70;37.80;;;;;;20912988;28;20225;-70
2022/04/13 16:43:51;;;;;;;4.30;3.30;;;26.90;38.00;;;;;;20916461;28;20243;-73
2022/04/13 16:53:53;;;;;;;5.20;3.40;;;26.60;38.10;;;;;;20916610;28;20204;-72
2022/04/13 17:03:54;;;;;;;4.90;3.43;;;24.90;39.10;;;;;;20914599;28;20270;-71
2022/04/13 17:13:56;;;;;;;5.50;2.83;;;23.80;40.30;;;;;;20915348;28;20208;-71
2022/04/13 17:23:59;;;;;;;11.57;3.20;;;23.60;41.20;;;;;;20914101;28;20273;-69
2022/04/13 17:34:01;;;;;;;6.50;2.93;;;22.70;41.90;;;;;;20862294;28;20672;-71
2022/04/13 17:44:03;;;;;;;12.13;4.03;;;22.50;42.70;;;;;;20843475;28;20776;-68
2022/04/13 17:54:05;;;;;;;5.90;4.00;;;22.00;43.90;;;;;;20909025;28;20680;-67
2022/04/13 18:04:07;;;;;;;6.80;3.70;;;20.90;46.50;;;;;;20871327;28;20274;-72
2022/04/13 18:14:09;;;;;;;11.73;6.33;;;20.90;47.50;;;;;;20911399;28;20219;-68
2022/04/13 18:24:11;;;;;;;12.93;5.80;;;20.30;48.40;;;;;;20911280;28;20237;-68
2022/04/13 18:34:14;;;;;;;17.77;5.50;;;19.70;50.00;;;;;;20909411;28;20201;-71
2022/04/13 18:44:18;;;;;;;15.10;6.57;;;19.60;50.90;;;;;;20905953;28;20250;-69
2022/04/13 18:54:19;;;;;;;12.93;5.40;;;19.00;52.50;;;;;;20906237;28;20661;-68
2022/04/13 19:04:25;;;;;;;9.73;4.90;;;18.90;53.10;;;;;;20905850;28;20720;-63
2022/04/13 19:14:27;;;;;;;18.80;6.47;;;18.70;54.40;;;;;;20905641;28;20263;-63
2022/04/13 19:24:28;;;;;;;9.93;5.87;;;18.40;55.20;;;;;;20912508;28;20361;-64
2022/04/13 19:34:30;;;;;;;12.77;7.63;;;17.80;56.50;;;;;;20919781;28;20253;-63
2022/04/13 19:44:32;;;;;;;14.03;5.60;;;17.80;57.20;;;;;;20918799;28;20578;-61
2022/04/13 19:54:34;;;;;;;10.30;7.27;;;17.50;57.80;;;;;;20917828;28;20578;-63
2022/04/13 20:04:36;;;;;;;17.23;5.47;;;17.20;58.90;;;;;;20916118;28;20242;-63
2022/04/13 20:14:38;;;;;;;14.47;5.17;;;16.90;60.00;;;;;;20917399;28;20207;-63
2022/04/13 20:24:40;;;;;;;10.70;5.07;;;16.60;60.30;;;;;;20916636;28;20362;-63
2022/04/13 20:34:42;;;;;;;11.57;5.87;;;16.40;60.80;;;;;;20915306;28;20212;-64
2022/04/13 20:44:44;;;;;;;8.67;5.70;;;16.20;62.20;;;;;;20838487;28;20302;-62
2022/04/13 20:54:47;;;;;;;11.70;5.67;;;15.90;62.80;;;;;;20830671;28;20297;-62
2022/04/13 21:04:49;;;;;;;9.73;5.33;;;15.70;63.70;;;;;;20830202;28;20274;-63
2022/04/13 21:14:51;;;;;;;15.13;5.57;;;15.60;64.20;;;;;;20830321;28;20219;-63
2022/04/13 21:24:52;;;;;;;10.07;5.17;;;15.60;65.30;;;;;;20829422;28;20643;-62
2022/04/13 21:34:56;;;;;;;9.33;5.30;;;15.40;65.50;;;;;;20828688;28;20220;-62
2022/04/13 21:44:57;;;;;;;8.67;5.10;;;15.20;66.70;;;;;;20827939;28;20246;-63
2022/04/13 21:54:59;;;;;;;15.40;6.30;;;15.20;66.80;;;;;;20828513;28;20279;-64
2022/04/13 22:05:01;;;;;;;10.90;5.87;;;14.90;68.40;;;;;;20830376;28;20245;-63
2022/04/13 22:15:03;;;;;;;12.60;5.97;;;14.60;69.80;;;;;;20831132;28;20212;-62
2022/04/13 22:25:05;;;;;;;8.07;5.23;;;14.60;69.90;;;;;;20879317;28;20271;-63
2022/04/13 22:35:07;;;;;;;12.60;5.50;;;14.50;70.20;;;;;;20844647;28;20236;-65
2022/04/13 22:45:09;;;;;;;10.03;5.80;;;14.40;71.30;;;;;;20829805;28;20229;-63
2022/04/13 22:55:12;;;;;;;10.43;5.50;;;14.20;71.50;;;;;;20827289;28;20232;-64
2022/04/13 23:05:14;;;;;;;8.07;5.27;;;14.10;72.20;;;;;;20840360;28;20232;-63
2022/04/13 23:15:16;;;;;;;11.57;5.10;;;13.90;72.90;;;;;;20839855;28;20209;-67
2022/04/13 23:25:17;;;;;;;10.27;5.10;;;13.80;73.00;;;;;;20839698;28;20240;-63
2022/04/13 23:35:19;;;;;;;10.13;5.80;;;13.70;73.90;;;;;;20837836;28;20208;-65
2022/04/13 23:45:21;;;;;;;8.57;5.40;;;13.60;74.00;;;;;;20836831;28;20259;-64
2022/04/13 23:55:22;;;;;;;10.23;5.13;;;13.60;74.60;;;;;;20838737;28;20459;-64
